Time;durP1;ratioP1;P1;durP2;ratioP2;P2;SDS_P1;SDS_P2;PMS_P1;PMS_P2;Temp;Humidity;BMP_temperature;BMP_pressure;BME280_temperature;BME280_humidity;BME280_pressure;Samples;Min_cycle;Max_cycle;Signal;HPM_P1;HPM_P2
2023/11/14 00:00:17;;;;;;;0.43;0.40;;;11.40;99.90;;;;;;5044824;28;20021;-73
2023/11/14 00:02:43;;;;;;;1.17;0.47;;;11.40;99.90;;;;;;5039529;28;20042;-75
2023/11/14 00:05:09;;;;;;;1.65;1.08;;;11.40;99.90;;;;;;5038560;28;20610;-75
2023/11/14 00:07:35;;;;;;;1.02;0.63;;;11.50;99.90;;;;;;5041449;28;20044;-74
2023/11/14 00:10:03;;;;;;;0.28;0.28;;;11.40;99.90;;;;;;5040571;28;20493;-74
2023/11/14 00:12:29;;;;;;;6.28;1.13;;;11.30;99.90;;;;;;5039280;28;20040;-73
2023/11/14 00:14:55;;;;;;;0.15;0.15;;;11.50;99.90;;;;;;5046405;28;20490;-74
2023/11/14 00:17:21;;;;;;;6.93;0.95;;;11.60;99.90;;;;;;5046680;28;20047;-73
2023/11/14 00:19:49;;;;;;;0.10;0.10;;;11.80;99.90;;;;;;5040768;28;20386;-76
2023/11/14 00:22:15;;;;;;;0.30;0.30;;;11.80;99.90;;;;;;5022277;28;20029;-74
2023/11/14 00:24:41;;;;;;;10.00;1.38;;;11.70;99.90;;;;;;5038086;28;20025;-75
2023/11/14 00:27:07;;;;;;;0.38;0.38;;;11.50;99.90;;;;;;5043256;28;20040;-74
2023/11/14 00:29:35;;;;;;;0.28;0.28;;;11.50;99.90;;;;;;5042508;28;20046;-73
2023/11/14 00:32:02;;;;;;;0.32;0.22;;;11.50;99.90;;;;;;5035180;28;20045;-75
2023/11/14 00:34:29;;;;;;;0.22;0.22;;;11.40;99.90;;;;;;5038824;28;20029;-74
2023/11/14 00:36:56;;;;;;;0.95;0.82;;;11.40;99.90;;;;;;5038605;28;20041;-75
2023/11/14 00:39:22;;;;;;;0.90;0.90;;;11.60;99.90;;;;;;5036484;28;20049;-74
2023/11/14 00:41:53;;;;;;;10.52;0.90;;;11.60;99.90;;;;;;5043847;28;20033;-76
2023/11/14 00:44:20;;;;;;;;;;;11.70;99.90;;;;;;5040258;28;20032;-77
2023/11/14 00:46:48;;;;;;;0.38;0.38;;;11.60;99.90;;;;;;5027359;28;19915;-75
2023/11/14 00:49:14;;;;;;;0.10;0.10;;;11.50;99.90;;;;;;5024396;28;20116;-74
2023/11/14 00:51:41;;;;;;;0.28;0.20;;;11.60;99.90;;;;;;5027685;28;20044;-75
2023/11/14 00:54:08;;;;;;;0.10;0.10;;;11.80;99.90;;;;;;5026749;28;20037;-75
2023/11/14 00:56:34;;;;;;;1.85;0.98;;;11.70;99.90;;;;;;5028902;28;20418;-75
2023/11/14 00:59:02;;;;;;;0.77;0.52;;;11.60;99.90;;;;;;5045623;28;20044;-75
2023/11/14 01:01:29;;;;;;;1.65;0.90;;;11.60;99.90;;;;;;5042393;28;20037;-75
2023/11/14 01:03:55;;;;;;;0.13;0.13;;;11.50;99.90;;;;;;5025725;28;20060;-75
2023/11/14 01:06:23;;;;;;;0.20;0.20;;;11.50;99.90;;;;;;5045805;28;20021;-75
2023/11/14 01:08:49;;;;;;;0.10;0.10;;;11.60;99.90;;;;;;5047867;28;20053;-76
2023/11/14 01:11:15;;;;;;;4.38;0.43;;;11.60;99.90;;;;;;5048873;28;20529;-75
2023/11/14 01:13:41;;;;;;;0.15;0.15;;;11.50;99.90;;;;;;5037986;28;20075;-76
2023/11/14 01:16:12;;;;;;;1.40;0.93;;;11.50;99.90;;;;;;5044150;28;20124;-77
2023/11/14 01:18:40;;;;;;;2.05;1.35;;;11.40;99.90;;;;;;5045533;28;20037;-75
2023/11/14 01:21:07;;;;;;;0.65;0.57;;;11.50;99.90;;;;;;5045987;28;20033;-74
2023/11/14 01:23:34;;;;;;;2.22;1.52;;;11.50;98.60;;;;;;5046644;28;20025;-74
2023/11/14 01:26:01;;;;;;;1.05;0.47;;;11.50;75.60;;;;;;5041555;28;20041;-74
2023/11/14 01:28:27;;;;;;;0.20;0.20;;;11.50;96.10;;;;;;5044950;28;20053;-76
2023/11/14 01:30:53;;;;;;;0.10;0.10;;;11.40;99.90;;;;;;5043108;28;20032;-77
2023/11/14 01:33:19;;;;;;;0.10;0.10;;;11.50;30.70;;;;;;5047622;28;20041;-71
2023/11/14 01:35:45;;;;;;;2.17;0.98;;;11.70;16.00;;;;;;5031115;28;20048;-73
2023/11/14 01:38:12;;;;;;;0.10;0.10;;;11.80;2.70;;;;;;5042263;28;20037;-73
2023/11/14 01:40:46;;;;;;;0.10;0.10;;;11.80;1.00;;;;;;5043390;28;20033;-76
2023/11/14 01:43:12;;;;;;;0.68;0.68;;;11.70;10.10;;;;;;5034348;28;20048;-75
2023/11/14 01:45:39;;;;;;;0.20;0.20;;;11.50;16.50;;;;;;5050444;28;20044;-76
2023/11/14 01:48:05;;;;;;;0.40;0.40;;;11.50;21.30;;;;;;5044765;28;20029;-75
2023/11/14 01:50:31;;;;;;;1.95;0.55;;;11.50;40.80;;;;;;5043789;28;20037;-76
2023/11/14 01:52:58;;;;;;;0.32;0.32;;;11.50;25.10;;;;;;5040908;28;20463;-76
2023/11/14 01:55:25;;;;;;;5.38;1.42;;;11.40;20.10;;;;;;5031360;28;20467;-77
2023/11/14 01:57:53;;;;;;;1.08;0.68;;;11.40;38.60;;;;;;5032208;28;20066;-75
2023/11/14 02:00:20;;;;;;;0.57;0.35;;;11.40;25.90;;;;;;5029447;28;20045;-76
2023/11/14 02:02:47;;;;;;;9.27;0.68;;;11.40;45.20;;;;;;5041900;28;20036;-75
2023/11/14 02:05:17;;;;;;;2.10;0.90;;;11.30;61.50;;;;;;5048398;28;20034;-76
2023/11/14 02:07:44;;;;;;;0.13;0.13;;;11.20;67.60;;;;;;5033701;28;20056;-75
2023/11/14 02:10:10;;;;;;;0.30;0.30;;;11.20;37.30;;;;;;5041318;28;20276;-74
2023/11/14 02:12:37;;;;;;;1.75;1.58;;;11.20;37.20;;;;;;5022692;28;20041;-78
2023/11/14 02:15:05;;;;;;;0.10;0.10;;;11.20;35.90;;;;;;5022452;28;20041;-75
2023/11/14 02:17:32;;;;;;;4.07;1.45;;;11.20;39.90;;;;;;5045927;28;20033;-75
2023/11/14 02:19:59;;;;;;;2.08;1.30;;;11.20;37.80;;;;;;5031609;28;20041;-76
2023/11/14 02:22:25;;;;;;;1.42;0.73;;;11.10;47.50;;;;;;5023755;28;20040;-76
2023/11/14 02:24:53;;;;;;;0.10;0.10;;;11.00;86.20;;;;;;5044773;28;20049;-76
2023/11/14 02:27:25;;;;;;;0.20;0.20;;;10.90;71.30;;;;;;5048256;28;20826;-74
2023/11/14 02:29:55;;;;;;;0.52;0.52;;;10.90;94.90;;;;;;5030320;28;20055;-76
2023/11/14 02:32:21;;;;;;;0.55;0.43;;;10.90;93.30;;;;;;5038673;28;20048;-75
2023/11/14 02:34:48;;;;;;;3.03;1.02;;;10.80;95.00;;;;;;5041307;28;20041;-75
2023/11/14 02:37:15;;;;;;;0.60;0.60;;;10.80;99.90;;;;;;5045434;28;20048;-74
2023/11/14 02:39:41;;;;;;;4.43;0.57;;;10.80;99.90;;;;;;5031074;28;20041;-74
2023/11/14 02:42:08;;;;;;;0.10;0.10;;;10.80;99.90;;;;;;5041034;28;20048;-74
2023/11/14 02:44:34;;;;;;;0.20;0.20;;;10.90;99.90;;;;;;5039671;28;20026;-73
2023/11/14 02:47:00;;;;;;;1.85;0.65;;;10.90;98.90;;;;;;5041320;28;20045;-75
2023/11/14 02:49:49;;;;;;;0.20;0.20;;;11.00;99.90;;;;;;5045755;28;20036;-74
2023/11/14 02:52:15;;;;;;;1.75;1.05;;;10.80;99.90;;;;;;5021665;28;20037;-74
2023/11/14 02:54:42;;;;;;;0.10;0.10;;;10.80;99.90;;;;;;5030652;28;20466;-75
2023/11/14 02:57:12;;;;;;;0.95;0.68;;;10.80;99.90;;;;;;5026270;28;20219;-74
2023/11/14 02:59:38;;;;;;;0.68;0.68;;;10.70;99.90;;;;;;5026304;28;20041;-74
2023/11/14 03:02:04;;;;;;;0.35;0.35;;;10.80;99.90;;;;;;5043800;28;20398;-75
2023/11/14 03:04:31;;;;;;;0.15;0.10;;;10.80;99.90;;;;;;5026309;28;20049;-76
2023/11/14 03:06:57;;;;;;;0.80;0.80;;;10.80;99.90;;;;;;5031137;28;20398;-74
2023/11/14 03:09:23;;;;;;;2.53;1.27;;;10.80;99.90;;;;;;5042246;28;20378;-74
2023/11/14 03:11:50;;;;;;;0.10;0.10;;;10.80;99.90;;;;;;5021964;28;20045;-76
2023/11/14 03:14:16;;;;;;;2.42;1.48;;;10.80;99.90;;;;;;5039525;28;20096;-74
2023/11/14 03:16:42;;;;;;;3.63;0.80;;;10.90;99.90;;;;;;5025469;28;20040;-75
2023/11/14 03:19:09;;;;;;;0.43;0.43;;;10.80;99.90;;;;;;5028180;28;20048;-75
2023/11/14 03:21:41;;;;;;;0.30;0.30;;;10.70;99.90;;;;;;5026552;28;20044;-74
2023/11/14 03:24:08;;;;;;;0.63;0.63;;;10.70;99.90;;;;;;5017697;28;20042;-75
2023/11/14 03:26:34;;;;;;;9.23;1.20;;;10.70;99.90;;;;;;5025780;28;20470;-75
2023/11/14 03:29:01;;;;;;;8.40;0.95;;;10.70;99.90;;;;;;5029519;28;20045;-74
2023/11/14 03:31:27;;;;;;;0.32;0.30;;;10.80;99.90;;;;;;5044883;28;20024;-74
2023/11/14 03:33:53;;;;;;;1.73;0.80;;;10.70;99.90;;;;;;5036161;28;20045;-76
2023/11/14 03:36:19;;;;;;;0.30;0.30;;;10.70;99.90;;;;;;5025937;28;20053;-74
2023/11/14 03:38:45;;;;;;;0.40;0.40;;;10.60;99.90;;;;;;5042527;28;20041;-75
2023/11/14 03:41:12;;;;;;;0.20;0.20;;;10.60;99.90;;;;;;5040931;28;20025;-74
2023/11/14 03:43:38;;;;;;;0.55;0.55;;;10.60;99.90;;;;;;5032686;28;20049;-75
2023/11/14 03:46:04;;;;;;;0.40;0.30;;;10.70;99.90;;;;;;5017151;28;20049;-74
2023/11/14 03:48:31;;;;;;;0.55;0.55;;;10.70;99.90;;;;;;5044006;28;20033;-74
2023/11/14 03:50:57;;;;;;;1.95;0.40;;;10.60;99.90;;;;;;5042872;28;20033;-74
2023/11/14 03:53:23;;;;;;;0.25;0.25;;;10.50;99.90;;;;;;5040335;28;20044;-74
2023/11/14 03:55:49;;;;;;;0.32;0.30;;;10.50;99.90;;;;;;5042631;28;20029;-75
2023/11/14 03:58:17;;;;;;;0.38;0.38;;;10.50;99.90;;;;;;5042725;28;20040;-74
2023/11/14 04:00:43;;;;;;;0.75;0.45;;;10.50;99.90;;;;;;5045256;28;20044;-74
2023/11/14 04:03:09;;;;;;;0.85;0.85;;;10.50;99.90;;;;;;5031012;28;20029;-74
2023/11/14 04:05:35;;;;;;;0.82;0.63;;;10.50;99.90;;;;;;5041703;28;20032;-74
2023/11/14 04:08:02;;;;;;;1.75;0.95;;;10.50;99.90;;;;;;5040205;28;20049;-74
2023/11/14 04:10:29;;;;;;;1.05;1.05;;;10.50;99.90;;;;;;5041809;28;20048;-74
2023/11/14 04:12:55;;;;;;;1.02;1.02;;;10.50;99.90;;;;;;5006756;28;20071;-74
2023/11/14 04:15:21;;;;;;;0.30;0.30;;;10.60;99.90;;;;;;5029225;28;20044;-74
2023/11/14 04:17:47;;;;;;;0.75;0.75;;;10.70;99.90;;;;;;5027917;28;20528;-75
2023/11/14 04:20:14;;;;;;;0.85;0.85;;;10.70;99.90;;;;;;5040207;28;20029;-74
2023/11/14 04:22:40;;;;;;;0.55;0.55;;;10.70;99.90;;;;;;5023370;28;20049;-74
2023/11/14 04:25:07;;;;;;;0.93;0.90;;;10.90;99.90;;;;;;5046121;28;20534;-76
2023/11/14 04:27:34;;;;;;;0.57;0.57;;;11.00;99.90;;;;;;5039477;28;20466;-75
2023/11/14 04:30:01;;;;;;;0.40;0.40;;;11.00;99.90;;;;;;5027556;28;20497;-74
2023/11/14 04:32:27;;;;;;;1.58;0.85;;;11.00;99.90;;;;;;5025370;28;20038;-75
2023/11/14 04:34:53;;;;;;;2.95;0.85;;;11.10;99.90;;;;;;5028813;28;20081;-75
2023/11/14 04:37:20;;;;;;;4.47;1.45;;;11.00;99.90;;;;;;5025544;28;20057;-76
2023/11/14 04:39:46;;;;;;;1.65;1.55;;;11.00;99.90;;;;;;5040964;28;20033;-75
2023/11/14 04:42:12;;;;;;;0.40;0.40;;;11.10;99.90;;;;;;5027872;28;20394;-76
2023/11/14 04:44:39;;;;;;;0.10;0.10;;;11.10;99.90;;;;;;5014997;28;20038;-75
2023/11/14 04:47:07;;;;;;;0.75;0.45;;;11.00;99.90;;;;;;5041408;28;20045;-76
2023/11/14 04:49:34;;;;;;;0.10;0.10;;;11.00;99.90;;;;;;5024430;28;20056;-74
2023/11/14 04:52:00;;;;;;;0.68;0.68;;;11.00;99.90;;;;;;5021215;28;20129;-77
2023/11/14 04:54:26;;;;;;;1.13;1.05;;;11.00;99.90;;;;;;5019382;28;20037;-78
2023/11/14 04:56:54;;;;;;;1.08;0.90;;;11.10;99.90;;;;;;5003066;28;20037;-75
2023/11/14 04:59:20;;;;;;;0.80;0.50;;;11.00;99.90;;;;;;5023010;28;20599;-75
2023/11/14 05:01:47;;;;;;;0.10;0.10;;;11.00;99.90;;;;;;5025148;28;20040;-75
2023/11/14 05:04:13;;;;;;;0.50;0.32;;;10.90;99.90;;;;;;5005665;28;20089;-75
2023/11/14 05:06:40;;;;;;;0.85;0.85;;;11.00;99.90;;;;;;5010265;28;20049;-77
2023/11/14 05:09:07;;;;;;;1.88;0.47;;;10.90;99.90;;;;;;5006734;28;20045;-75
2023/11/14 05:11:37;;;;;;;5.53;1.15;;;10.90;99.90;;;;;;5010164;28;20141;-75
2023/11/14 05:14:06;;;;;;;16.55;0.98;;;10.80;99.90;;;;;;5010436;28;20048;-77
2023/11/14 05:16:45;;;;;;;0.32;0.32;;;10.80;99.90;;;;;;5026463;28;20053;-74
2023/11/14 05:19:12;;;;;;;2.28;1.17;;;10.90;99.90;;;;;;5007991;28;20128;-73
2023/11/14 05:21:38;;;;;;;0.20;0.20;;;11.00;99.90;;;;;;5037673;28;20041;-75
2023/11/14 05:24:07;;;;;;;15.23;1.27;;;10.90;99.90;;;;;;5024614;28;20040;-75
2023/11/14 05:26:33;;;;;;;0.65;0.45;;;10.90;99.90;;;;;;5025463;28;20046;-74
2023/11/14 05:28:59;;;;;;;0.10;0.10;;;10.90;99.90;;;;;;5015275;28;20388;-75
2023/11/14 05:31:26;;;;;;;0.45;0.45;;;10.80;99.90;;;;;;5023974;28;20048;-79
2023/11/14 05:33:52;;;;;;;1.55;1.45;;;10.90;99.90;;;;;;5023783;28;20382;-78
2023/11/14 05:36:19;;;;;;;2.75;2.08;;;10.90;99.90;;;;;;5036684;28;20591;-76
2023/11/14 05:38:45;;;;;;;1.58;0.30;;;10.90;99.90;;;;;;5040382;28;20783;-76
2023/11/14 05:41:11;;;;;;;0.77;0.38;;;10.80;99.90;;;;;;5018417;28;20033;-76
2023/11/14 05:43:37;;;;;;;1.60;1.50;;;10.90;99.90;;;;;;5042073;28;20041;-76
2023/11/14 05:46:03;;;;;;;0.10;0.10;;;10.90;99.90;;;;;;5038008;28;20034;-75
2023/11/14 05:48:30;;;;;;;0.40;0.40;;;10.80;99.90;;;;;;5045837;28;20463;-75
2023/11/14 05:50:56;;;;;;;0.10;0.10;;;10.80;99.90;;;;;;5042847;28;20488;-75
2023/11/14 05:53:22;;;;;;;0.30;0.30;;;10.90;99.90;;;;;;5047148;28;20043;-75
2023/11/14 05:55:48;;;;;;;0.17;0.17;;;10.80;99.90;;;;;;5041180;28;20040;-75
2023/11/14 05:58:15;;;;;;;0.10;0.10;;;10.90;99.90;;;;;;5047362;28;20489;-75
2023/11/14 06:00:41;;;;;;;0.35;0.35;;;10.90;99.90;;;;;;5032728;28;20045;-75
2023/11/14 06:03:07;;;;;;;1.08;1.05;;;10.80;99.90;;;;;;5027405;28;20044;-75
2023/11/14 06:05:33;;;;;;;2.78;1.75;;;10.80;99.90;;;;;;5045256;28;20033;-75
2023/11/14 06:08:00;;;;;;;0.55;0.38;;;10.70;99.90;;;;;;5042968;28;20112;-76
2023/11/14 06:10:26;;;;;;;0.43;0.43;;;10.70;99.90;;;;;;5040159;28;20037;-76
2023/11/14 06:12:52;;;;;;;0.45;0.45;;;10.70;99.90;;;;;;5042209;28;20025;-77
2023/11/14 06:15:18;;;;;;;1.45;0.90;;;10.90;99.90;;;;;;5034228;28;20053;-75
2023/11/14 06:17:44;;;;;;;1.55;1.08;;;11.00;99.90;;;;;;5042922;28;20038;-76
2023/11/14 06:20:12;;;;;;;0.95;0.38;;;11.00;99.90;;;;;;5042359;28;20026;-75
2023/11/14 06:22:39;;;;;;;1.65;1.38;;;11.10;99.90;;;;;;5045463;28;20363;-75
2023/11/14 06:25:06;;;;;;;9.75;0.73;;;11.10;99.90;;;;;;5036936;28;20037;-76
2023/11/14 06:27:32;;;;;;;0.45;0.43;;;11.20;99.90;;;;;;5042639;28;20041;-76
2023/11/14 06:29:58;;;;;;;3.00;1.80;;;11.40;99.90;;;;;;5040230;28;20029;-75
2023/11/14 06:32:25;;;;;;;2.72;1.17;;;11.40;99.90;;;;;;5048946;28;20040;-76
2023/11/14 06:34:52;;;;;;;0.68;0.63;;;11.40;99.90;;;;;;5043823;28;20041;-76
2023/11/14 06:37:19;;;;;;;0.10;0.10;;;11.50;99.90;;;;;;5042570;28;20056;-77
2023/11/14 06:39:46;;;;;;;0.57;0.57;;;11.40;99.90;;;;;;5044039;28;20068;-76
2023/11/14 06:42:12;;;;;;;0.88;0.28;;;11.40;99.90;;;;;;5030973;28;20599;-75
2023/11/14 06:44:42;;;;;;;0.20;0.20;;;11.50;99.90;;;;;;5046641;28;20393;-76
2023/11/14 06:47:09;;;;;;;2.80;0.85;;;11.40;99.90;;;;;;5039338;28;20029;-74
2023/11/14 06:49:37;;;;;;;10.45;1.75;;;11.50;99.90;;;;;;5045753;28;20032;-75
2023/11/14 06:52:03;;;;;;;1.17;0.90;;;11.50;99.90;;;;;;5041025;28;20034;-76
2023/11/14 06:54:29;;;;;;;1.65;0.80;;;11.50;99.90;;;;;;5044911;28;20037;-76
2023/11/14 06:56:55;;;;;;;1.15;1.05;;;11.50;99.90;;;;;;5023457;28;20045;-75
2023/11/14 06:59:21;;;;;;;0.20;0.20;;;11.40;99.90;;;;;;5045823;28;20045;-74
2023/11/14 07:01:52;;;;;;;2.05;1.45;;;11.40;99.90;;;;;;5041386;28;20033;-75
2023/11/14 07:04:19;;;;;;;0.75;0.63;;;11.40;99.90;;;;;;5047173;28;20045;-74
2023/11/14 07:06:45;;;;;;;1.58;1.48;;;11.40;99.90;;;;;;5039670;28;20047;-75
2023/11/14 07:09:12;;;;;;;4.32;1.17;;;11.40;99.90;;;;;;5039027;28;20034;-75
2023/11/14 07:11:44;;;;;;;0.38;0.30;;;11.50;99.90;;;;;;5046502;28;20052;-74
2023/11/14 07:14:10;;;;;;;15.10;1.33;;;11.60;99.90;;;;;;5044770;28;20060;-75
2023/11/14 07:16:37;;;;;;;0.43;0.40;;;11.50;99.90;;;;;;5040869;28;20056;-74
2023/11/14 07:19:03;;;;;;;0.25;0.22;;;11.50;99.90;;;;;;5048351;28;20029;-75
2023/11/14 07:21:32;;;;;;;2.35;1.17;;;11.60;99.90;;;;;;5059567;28;20033;-75
2023/11/14 07:23:59;;;;;;;0.70;0.70;;;11.80;99.90;;;;;;5041990;28;20044;-75
2023/11/14 07:26:25;;;;;;;0.32;0.32;;;11.90;99.90;;;;;;5042548;28;20029;-74
2023/11/14 07:28:52;;;;;;;2.58;0.40;;;11.80;99.90;;;;;;5044519;28;20057;-75
2023/11/14 07:31:19;;;;;;;0.22;0.20;;;11.90;99.90;;;;;;5039759;28;20030;-76
2023/11/14 07:33:45;;;;;;;0.20;0.20;;;11.90;99.90;;;;;;5044604;28;20029;-75
2023/11/14 07:36:11;;;;;;;0.35;0.35;;;11.90;99.90;;;;;;5047403;28;20045;-74
2023/11/14 07:38:37;;;;;;;2.08;0.40;;;11.90;99.90;;;;;;5045422;28;20052;-75
2023/11/14 07:41:07;;;;;;;0.15;0.15;;;11.90;99.90;;;;;;5030225;28;20033;-74
2023/11/14 07:43:33;;;;;;;0.38;0.38;;;11.90;99.90;;;;;;5039543;28;20483;-75
2023/11/14 07:45:59;;;;;;;1.00;0.95;;;12.00;99.90;;;;;;5044179;28;20029;-75
2023/11/14 07:48:25;;;;;;;0.43;0.43;;;12.00;99.90;;;;;;5043284;28;20046;-75
2023/11/14 07:50:51;;;;;;;1.63;0.85;;;12.00;99.90;;;;;;5044322;28;20041;-75
2023/11/14 07:53:17;;;;;;;1.20;1.08;;;12.10;99.90;;;;;;5041933;28;20030;-74
2023/11/14 07:55:44;;;;;;;2.17;1.08;;;12.10;99.90;;;;;;5042846;28;20033;-76
2023/11/14 07:58:12;;;;;;;0.10;0.10;;;12.20;99.90;;;;;;5043085;28;20036;-75
2023/11/14 08:00:38;;;;;;;2.92;1.55;;;12.30;99.90;;;;;;5041088;28;20056;-75
2023/11/14 08:03:05;;;;;;;0.30;0.30;;;12.30;99.90;;;;;;5043508;28;20033;-75
2023/11/14 08:05:32;;;;;;;0.20;0.20;;;12.40;99.90;;;;;;5033949;28;20046;-75
2023/11/14 08:07:59;;;;;;;0.43;0.43;;;12.40;99.90;;;;;;5045287;28;20049;-74
2023/11/14 08:10:25;;;;;;;0.47;0.47;;;12.50;99.90;;;;;;5044134;28;20045;-75
2023/11/14 08:12:51;;;;;;;0.10;0.10;;;12.50;99.90;;;;;;5041772;28;20033;-74
2023/11/14 08:15:17;;;;;;;0.43;0.32;;;12.50;99.90;;;;;;5037676;28;20029;-75
2023/11/14 08:17:43;;;;;;;3.75;0.45;;;12.50;99.90;;;;;;5039176;28;20666;-74
2023/11/14 08:20:10;;;;;;;0.22;0.22;;;12.60;99.90;;;;;;5028529;28;20032;-75
2023/11/14 08:22:36;;;;;;;0.10;0.10;;;12.40;99.90;;;;;;5041182;28;20052;-74
2023/11/14 08:25:03;;;;;;;0.20;0.20;;;12.40;99.90;;;;;;5025768;28;20048;-74
2023/11/14 08:27:32;;;;;;;0.10;0.10;;;12.40;99.90;;;;;;5039903;28;20045;-74
2023/11/14 08:29:58;;;;;;;1.45;0.45;;;12.40;99.90;;;;;;5027563;28;20032;-75
2023/11/14 08:32:24;;;;;;;0.20;0.20;;;12.40;99.90;;;;;;5024204;28;20033;-75
2023/11/14 08:34:50;;;;;;;0.28;0.28;;;12.40;99.90;;;;;;5041099;28;20045;-75
2023/11/14 08:37:17;;;;;;;2.45;0.73;;;12.40;99.90;;;;;;5039006;28;20030;-76
2023/11/14 08:39:43;;;;;;;0.50;0.50;;;12.40;99.90;;;;;;5040549;28;20394;-74
2023/11/14 08:42:11;;;;;;;0.10;0.10;;;12.40;99.90;;;;;;5041776;28;20029;-75
2023/11/14 08:44:38;;;;;;;1.95;0.40;;;12.40;99.90;;;;;;5046140;28;20036;-75
2023/11/14 08:47:05;;;;;;;1.00;0.93;;;12.40;99.90;;;;;;5040326;28;20036;-75
2023/11/14 08:49:31;;;;;;;2.10;1.20;;;12.50;99.90;;;;;;5044670;28;20033;-75
2023/11/14 08:51:57;;;;;;;2.08;1.08;;;12.50;99.90;;;;;;5043213;28;20025;-76
2023/11/14 08:54:24;;;;;;;1.48;0.73;;;12.60;99.90;;;;;;5044298;28;20040;-75
2023/11/14 08:56:50;;;;;;;1.23;1.13;;;12.70;89.60;;;;;;5039214;28;20040;-75
2023/11/14 08:59:16;;;;;;;1.55;1.00;;;12.80;85.00;;;;;;5040563;28;20029;-74
2023/11/14 09:01:47;;;;;;;7.93;2.10;;;12.90;88.00;;;;;;5045218;28;20473;-75
2023/11/14 09:04:13;;;;;;;4.13;1.05;;;12.90;75.50;;;;;;5041472;28;20032;-75
2023/11/14 09:06:39;;;;;;;0.10;0.10;;;12.80;64.30;;;;;;5038831;28;20026;-75
2023/11/14 09:09:07;;;;;;;0.57;0.57;;;12.80;78.30;;;;;;5041499;28;20368;-75
2023/11/14 09:11:33;;;;;;;10.95;0.30;;;12.70;73.30;;;;;;5036677;28;20045;-75
2023/11/14 09:14:01;;;;;;;4.03;0.85;;;12.80;91.00;;;;;;5035403;28;20041;-75
2023/11/14 09:16:27;;;;;;;0.20;0.20;;;12.80;87.40;;;;;;5039770;28;20053;-76
2023/11/14 09:18:54;;;;;;;1.27;0.88;;;12.80;80.70;;;;;;5037730;28;20045;-75
2023/11/14 09:21:21;;;;;;;1.02;0.75;;;12.80;73.50;;;;;;5041413;28;20044;-74
2023/11/14 09:23:47;;;;;;;8.32;2.25;;;12.90;56.40;;;;;;5044560;28;20041;-75
2023/11/14 09:26:13;;;;;;;0.40;0.40;;;13.00;43.10;;;;;;5043296;28;20036;-74
2023/11/14 09:28:40;;;;;;;1.55;0.47;;;13.00;53.90;;;;;;5043425;28;20033;-75
2023/11/14 09:31:08;;;;;;;0.63;0.25;;;12.90;65.70;;;;;;5045385;28;20033;-74
2023/11/14 09:33:35;;;;;;;3.00;0.88;;;12.90;86.20;;;;;;5042049;28;20029;-74
2023/11/14 09:36:02;;;;;;;0.10;0.10;;;12.90;85.20;;;;;;5043472;28;20044;-75
2023/11/14 09:38:29;;;;;;;0.80;0.80;;;12.90;87.10;;;;;;5047496;28;20402;-75
2023/11/14 09:40:55;;;;;;;0.20;0.20;;;12.90;90.90;;;;;;5043686;28;20041;-75
2023/11/14 09:43:22;;;;;;;0.00;0.00;;;12.80;91.60;;;;;;5049962;28;20459;-74
2023/11/14 09:45:50;;;;;;;0.30;0.30;;;12.90;63.30;;;;;;5051035;28;20034;-74
2023/11/14 09:48:18;;;;;;;0.17;0.10;;;12.90;92.10;;;;;;5047125;28;20033;-75
2023/11/14 09:50:45;;;;;;;2.50;1.65;;;12.80;90.00;;;;;;5045730;28;20029;-73
2023/11/14 09:53:13;;;;;;;0.30;0.30;;;12.90;83.00;;;;;;5042406;28;20037;-74
2023/11/14 09:55:40;;;;;;;2.35;0.75;;;12.80;90.20;;;;;;5056159;28;20059;-76
2023/11/14 09:58:06;;;;;;;0.50;0.30;;;12.80;79.00;;;;;;5058234;28;20037;-75
2023/11/14 10:00:33;;;;;;;0.52;0.52;;;12.70;92.60;;;;;;5044112;28;20060;-74
2023/11/14 10:03:02;;;;;;;1.40;1.33;;;12.70;95.50;;;;;;5043709;28;20413;-76
2023/11/14 10:05:32;;;;;;;1.65;0.38;;;12.70;96.70;;;;;;5044964;28;20056;-76
2023/11/14 10:08:00;;;;;;;0.80;0.70;;;12.70;98.80;;;;;;5048791;28;20502;-75
2023/11/14 10:10:28;;;;;;;0.65;0.60;;;12.70;81.00;;;;;;5028507;28;20063;-75
2023/11/14 10:12:55;;;;;;;0.10;0.10;;;12.70;84.70;;;;;;5043782;28;20037;-78
2023/11/14 10:15:28;;;;;;;1.17;0.75;;;12.80;77.90;;;;;;5027561;28;20049;-75
2023/11/14 10:17:55;;;;;;;0.10;0.10;;;12.80;56.70;;;;;;5050448;28;20044;-77
2023/11/14 10:20:22;;;;;;;0.20;0.20;;;12.90;48.40;;;;;;5043527;28;20361;-76
2023/11/14 10:22:49;;;;;;;0.38;0.13;;;12.90;63.30;;;;;;5042643;28;20036;-76
2023/11/14 10:25:27;;;;;;;1.15;1.08;;;12.90;70.10;;;;;;5040511;28;20022;-75
2023/11/14 10:28:05;;;;;;;0.55;0.47;;;12.90;52.30;;;;;;5044361;28;20033;-76
2023/11/14 10:30:45;;;;;;;0.45;0.43;;;12.90;63.90;;;;;;5048506;28;20025;-76
2023/11/14 10:33:15;;;;;;;0.10;0.10;;;12.90;43.90;;;;;;5039968;28;20033;-76
2023/11/14 10:35:43;;;;;;;3.03;0.98;;;12.90;49.90;;;;;;5041300;28;20036;-76
2023/11/14 10:38:16;;;;;;;0.10;0.10;;;12.90;58.40;;;;;;5040059;28;20045;-76
2023/11/14 10:40:53;;;;;;;1.80;1.05;;;12.90;65.30;;;;;;5044171;28;20401;-76
2023/11/14 10:43:29;;;;;;;0.75;0.52;;;12.90;66.70;;;;;;5042179;28;20033;-76
2023/11/14 10:45:56;;;;;;;0.55;0.40;;;12.90;81.60;;;;;;5038748;28;20490;-77
2023/11/14 10:48:23;;;;;;;0.20;0.20;;;12.80;92.70;;;;;;5040343;28;20041;-76
2023/11/14 10:50:51;;;;;;;0.32;0.32;;;12.80;91.00;;;;;;5044644;28;20032;-76
2023/11/14 10:53:17;;;;;;;0.28;0.28;;;12.90;74.70;;;;;;5044742;28;20343;-76
2023/11/14 10:55:45;;;;;;;0.20;0.20;;;12.90;65.10;;;;;;5039427;28;20048;-76
2023/11/14 10:58:13;;;;;;;0.57;0.47;;;13.00;55.90;;;;;;5043622;28;20423;-76
2023/11/14 11:00:40;;;;;;;0.65;0.65;;;13.00;59.20;;;;;;5042551;28;20031;-75
2023/11/14 11:03:07;;;;;;;0.28;0.28;;;13.00;49.40;;;;;;5043635;28;20036;-75
2023/11/14 11:05:34;;;;;;;1.40;0.57;;;13.00;59.70;;;;;;5041583;28;20494;-76
2023/11/14 11:08:08;;;;;;;0.47;0.47;;;13.10;47.00;;;;;;5041727;28;20048;-76
2023/11/14 11:10:36;;;;;;;0.80;0.63;;;13.10;46.50;;;;;;5043909;28;20056;-76
2023/11/14 11:13:23;;;;;;;1.15;0.63;;;13.20;55.60;;;;;;5044781;28;20056;-76
2023/11/14 11:15:51;;;;;;;0.52;0.52;;;13.20;50.60;;;;;;5029674;28;20033;-75
2023/11/14 11:18:38;;;;;;;0.10;0.10;;;13.20;31.60;;;;;;5041214;28;20041;-77
2023/11/14 11:21:12;;;;;;;0.30;0.30;;;13.30;45.20;;;;;;5045129;28;20044;-79
2023/11/14 11:24:09;;;;;;;0.20;0.20;;;13.40;27.00;;;;;;5045378;28;20036;-77
2023/11/14 11:27:15;;;;;;;0.10;0.10;;;13.50;26.50;;;;;;5041944;28;20029;-77
2023/11/14 11:29:50;;;;;;;0.47;0.47;;;13.60;9.30;;;;;;5038026;28;20021;-76
2023/11/14 11:32:22;;;;;;;0.20;0.20;;;13.60;14.60;;;;;;5042626;28;20186;-76
2023/11/14 11:35:20;;;;;;;0.10;0.10;;;13.60;4.60;;;;;;5046164;28;20040;-76
2023/11/14 11:38:09;;;;;;;0.17;0.17;;;13.50;1.00;;;;;;5040588;28;20045;-77
2023/11/14 11:40:56;;;;;;;0.15;0.15;;;13.60;1.00;;;;;;5041207;28;20033;-76
2023/11/14 11:43:25;;;;;;;0.10;0.10;;;13.60;5.10;;;;;;5026628;28;20041;-76
2023/11/14 11:45:51;;;;;;;2.63;0.52;;;13.60;46.30;;;;;;5041237;28;20024;-76
2023/11/14 11:48:24;;;;;;;0.10;0.10;;;13.40;94.90;;;;;;5046918;28;20025;-76
2023/11/14 11:50:53;;;;;;;1.45;0.95;;;13.20;99.90;;;;;;5039817;28;20036;-74
2023/11/14 11:53:40;;;;;;;0.45;0.45;;;13.10;99.90;;;;;;5029837;28;20097;-75
2023/11/14 11:56:10;;;;;;;0.22;0.22;;;13.10;99.90;;;;;;5040287;28;20033;-74
2023/11/14 11:58:47;;;;;;;0.10;0.10;;;13.00;99.90;;;;;;5027281;28;20051;-73
2023/11/14 12:01:15;;;;;;;0.30;0.30;;;12.90;99.90;;;;;;5040251;28;20463;-74
2023/11/14 12:03:42;;;;;;;0.73;0.32;;;12.90;99.90;;;;;;5040546;28;20033;-74
2023/11/14 12:06:09;;;;;;;0.03;0.03;;;12.80;99.90;;;;;;5039830;28;20040;-75
2023/11/14 12:08:36;;;;;;;5.68;1.30;;;12.80;99.90;;;;;;5041159;28;20040;-73
2023/11/14 12:11:03;;;;;;;0.55;0.55;;;12.80;99.90;;;;;;5042477;28;20049;-74
2023/11/14 12:13:30;;;;;;;1.27;0.57;;;12.80;99.90;;;;;;5044934;28;20028;-74
2023/11/14 12:15:57;;;;;;;0.45;0.13;;;12.80;99.90;;;;;;5044109;28;20032;-76
2023/11/14 12:18:23;;;;;;;6.13;0.85;;;12.90;99.90;;;;;;5032257;28;20044;-75
2023/11/14 12:20:50;;;;;;;0.10;0.10;;;12.90;99.90;;;;;;5031946;28;20501;-77
2023/11/14 12:23:16;;;;;;;0.20;0.20;;;12.90;99.90;;;;;;5044527;28;20021;-77
2023/11/14 12:25:43;;;;;;;0.50;0.47;;;12.90;99.90;;;;;;5040270;28;20033;-76
2023/11/14 12:28:09;;;;;;;0.80;0.43;;;12.90;99.90;;;;;;5048767;28;20051;-77
2023/11/14 12:30:36;;;;;;;0.52;0.52;;;12.90;99.90;;;;;;5046319;28;20040;-77
2023/11/14 12:33:07;;;;;;;0.10;0.10;;;12.90;99.90;;;;;;5057818;28;20034;-77
2023/11/14 12:35:59;;;;;;;0.20;0.20;;;12.90;99.90;;;;;;5046416;28;20046;-77
2023/11/14 12:38:32;;;;;;;0.32;0.32;;;12.90;99.90;;;;;;5043920;28;20048;-76
2023/11/14 12:41:27;;;;;;;0.10;0.10;;;13.00;99.90;;;;;;5046250;28;20359;-74
2023/11/14 12:43:54;;;;;;;0.17;0.17;;;13.00;99.90;;;;;;5026200;28;20045;-77
2023/11/14 12:46:22;;;;;;;0.57;0.57;;;13.00;99.90;;;;;;5038639;28;20370;-76
2023/11/14 12:49:08;;;;;;;0.55;0.30;;;13.10;79.50;;;;;;5042993;28;20040;-75
2023/11/14 12:51:36;;;;;;;0.20;0.20;;;13.20;29.50;;;;;;5043919;28;20029;-74